EDT,Max TemperatureF,Mean TemperatureF,Min TemperatureF,Max Dew PointF,MeanDew PointF,Min DewpointF,Max Humidity, Mean Humidity, Min Humidity, Max Sea Level PressureIn, Mean Sea Level PressureIn, Min Sea Level PressureIn, Max VisibilityMiles, Mean VisibilityMiles, Min VisibilityMiles, Max Wind SpeedMPH, Mean Wind SpeedMPH, Max Gust SpeedMPH,PrecipitationIn, CloudCover, Events, WindDirDegrees
2012-10-1,60,58,55,61,59,55,100,99,94,29.97,29.93,29.90,10,8,3,8,2,,0.01,7,Rain,83
2012-10-2,82,72,62,77,70,63,100,93,70,29.99,29.90,29.86,10,6,0,12,4,9,0.18,6,Fog-Rain,157
2012-10-3,82,76,69,73,71,64,100,89,58,30.20,30.11,29.99,10,9,0,7,3,,0.00,4,Fog,215
2012-10-4,77,68,59,70,64,59,100,86,61,30.25,30.21,30.18,10,9,0,7,2,,0.00,2,Fog-Rain,257
2012-10-5,77,64,51,63,56,52,100,82,41,30.22,30.14,30.05,10,6,0,6,0,,0.00,1,Fog,323
2012-10-6,80,66,53,64,58,54,100,79,47,30.04,29.97,29.92,10,8,1,12,2,17,0.00,4,,281
2012-10-7,55,50,46,54,50,46,100,98,87,30.18,30.09,30.02,10,9,2,12,5,23,0.44,8,Rain,19
2012-10-8,50,47,44,50,46,43,100,97,87,30.27,30.20,30.17,10,9,3,13,5,16,0.07,8,Rain,24
2012-10-9,55,50,44,54,49,45,100,98,88,30.20,30.14,30.10,10,7,2,9,5,,0.01,8,Rain,359
2012-10-10,69,60,50,54,51,46,100,82,52,30.14,30.06,30.00,10,9,0,10,2,17,0.00,3,Fog,280
2012-10-11,64,53,42,48,41,36,100,71,39,30.33,30.25,30.15,10,10,5,7,2,,0.00,0,,322
2012-10-12,69,54,39,52,43,39,100,76,33,30.30,30.23,30.20,10,9,1,9,1,,0.00,0,,346
2012-10-13,62,50,37,48,41,37,100,76,45,30.51,30.43,30.36,10,10,3,8,2,,0.00,0,,97
2012-10-14,71,54,37,61,51,37,100,84,53,30.36,30.22,30.04,10,9,3,13,2,20,0.00,2,,211
2012-10-15,69,62,53,68,60,43,100,89,63,30.04,29.88,29.73,10,10,2,12,5,,0.19,5,Rain,228
2012-10-16,66,54,42,50,43,41,100,73,42,29.99,29.93,29.89,10,10,2,7,2,,0.00,0,,321
2012-10-17,69,55,41,52,45,41,100,78,38,30.03,29.98,29.94,10,9,5,10,1,,0.00,0,,178
2012-10-18,71,56,41,64,55,41,100,92,64,29.96,29.89,29.80,10,9,3,10,1,,0.01,3,Rain,161
2012-10-19,73,58,44,64,52,34,100,72,28,29.80,29.76,29.69,10,9,2,20,5,25,0.33,2,Rain,214
2012-10-20,68,54,39,48,43,39,100,73,37,29.99,29.85,29.77,10,10,10,9,2,,0.00,1,,308
2012-10-21,64,50,37,46,41,37,100,78,39,30.18,30.11,30.00,10,10,2,8,1,,0.00,0,,345
2012-10-22,71,53,35,52,43,36,100,79,33,30.26,30.20,30.17,10,9,3,6,0,,0.00,0,,355
2012-10-23,78,60,41,54,49,41,100,77,32,30.21,30.17,30.12,10,9,2,9,2,,0.00,0,,222
2012-10-24,78,62,46,59,52,46,100,78,39,30.21,30.16,30.11,10,9,3,7,1,,0.00,0,,236
2012-10-25,77,60,44,59,52,45,100,81,41,30.20,30.16,30.13,10,8,1,6,1,,0.00,0,,136
2012-10-26,69,60,50,63,58,50,100,93,68,30.18,30.09,29.99,10,6,0,12,4,,0.00,6,Fog-Rain,36
2012-10-27,64,62,59,63,57,54,100,85,68,29.98,29.85,29.77,10,10,7,15,9,25,0.00,7,,26
2012-10-28,62,56,50,54,49,45,100,74,55,29.76,29.67,29.61,10,10,5,15,11,25,0.00,6,Rain,359
2012-10-29,50,44,39,50,42,37,100,95,81,29.62,29.50,29.27,10,9,7,16,10,31,0.37,8,Rain,301
2012-10-30,48,42,37,37,32,30,93,67,50,29.59,29.41,29.24,10,10,10,18,11,33,0.02,7,Rain,261
2012-10-31,51,44,37,36,33,32,81,64,47,29.77,29.68,29.59,10,10,10,16,6,22,0.00,4,,260